Tropical Cyclones
[Index]
Main Index Home Page Stock Weather Photos Extreme Storms Discussion Storm News and Storm Chasing Reports Tropical Cyclones / Hurricanes / Typhoons Weather Data and Links Wild Fires / Bushfires Weather Observation Techniques Weather Picture Catalogue Tornado Pictures and Reports Stock Video Footage and DVDs for sale
Season 1968-1969 Tropical Cyclone DANY Track Map
Season 1968-1969 Summaries: [BoM-AU] [JTWC-AU] [JTWC-SIO] [JTWC-SPAC] [JTWC-SH]
<<- Previous TC | JTWC 1968-1969 Season | Next TC ->>

click for intensity scale information  Lat/long Grid: Show Hide

 Date Labels: Show Hide

Joint Typhoon Warning Centre Cyclone Data

Name: DANY
Number: 695 / 6917

27 Jan 1969 06:00 UTC to 09 Feb 1969 06:00 UTC

    date/time    lat    long     hPa   cat  kts
1969-01-27 06    8.4    70.9                              
1969-01-27 12    8.7    70.6                              
1969-01-27 18    9.0    70.3                              
1969-01-28 00    9.2    70.0                              
1969-01-28 06    9.5    69.6                              
1969-01-28 12    9.8    69.1                              
1969-01-28 18   10.2    68.6                              
1969-01-29 00   10.5    68.4                              
1969-01-29 06   10.8    68.0                              
1969-01-29 12   11.2    67.3                              
1969-01-29 18   11.8    66.5                              
1969-01-30 00   12.4    65.8                              
1969-01-30 06   13.0    65.0                              
1969-01-30 12   13.5    64.1                              
1969-01-30 18   14.0    63.2                              
1969-01-31 00   14.5    62.4                              
1969-01-31 06   15.0    61.5                              
1969-01-31 12   15.4    60.5                              
1969-01-31 18   15.8    59.4                              
1969-02-01 00   16.1    58.1                              
1969-02-01 06   16.5    56.8                              
1969-02-01 12   17.0    55.8                              
1969-02-01 18   17.5    55.0                              
1969-02-02 00   18.2    54.3                              
1969-02-02 06   18.8    53.6                              
1969-02-02 12   19.2    52.9                              
1969-02-02 18   19.4    52.2                              
1969-02-03 00   19.6    51.6                              
1969-02-03 06   19.7    51.0                              
1969-02-03 12   19.7    50.3                              
1969-02-03 18   19.8    49.6                              
1969-02-04 00   19.8    49.1                              
1969-02-04 06   19.9    48.5                              
1969-02-04 12   20.0    47.7                              
1969-02-04 18   20.1    47.0                              
1969-02-05 00   20.1    46.4                              
1969-02-05 06   20.2    45.8                              
1969-02-05 12   20.3    45.2                              
1969-02-05 18   20.4    44.5                              
1969-02-06 00   20.5    43.7                              
1969-02-06 06   20.7    43.0                              
1969-02-06 12   20.9    42.5                              
1969-02-06 18   21.1    42.1                              
1969-02-07 00   21.4    41.8                              
1969-02-07 06   21.8    41.5                              
1969-02-07 12   22.5    41.3                              
1969-02-07 18   23.5    41.1                              
1969-02-08 00   24.7    41.0                              
1969-02-08 06   25.8    41.0                              
1969-02-08 12   26.9    41.4                              
1969-02-08 18   28.0    42.0                              
1969-02-09 00   29.0    42.7                              
1969-02-09 06   30.0    43.5                              
Winds are 1-min average.

Tropical cyclone tracks developed by Michael Bath using data from the Joint Typhoon Warning Centre Best Tracks and Google Maps.


[Australian Severe Weather index] [Copyright Notice] [Email Contacts] [Search This Site] [Privacy Policy]
Document: tropical_cyclone_dany.htm Updated: 18 September 2016